createdAt,value
2022-12-11T00:02:07.024Z,59.42
2022-12-11T00:04:33.810Z,57.47
2022-12-11T00:07:00.567Z,60.03
2022-12-11T00:09:27.329Z,55.45
2022-12-11T00:11:54.127Z,59.78
2022-12-11T00:14:20.914Z,54.85
2022-12-11T00:16:49.621Z,57.33
2022-12-11T00:19:16.767Z,63.90
2022-12-11T00:21:43.575Z,64.38
2022-12-11T00:24:10.897Z,64.85
2022-12-11T00:26:38.496Z,60.88
2022-12-11T00:29:05.512Z,59.45
2022-12-11T00:31:32.379Z,66.38
2022-12-11T00:34:01.186Z,70.13
2022-12-11T00:36:28.447Z,68.68
2022-12-11T00:38:55.417Z,73.60
2022-12-11T00:41:22.676Z,68.35
2022-12-11T00:43:49.454Z,72.57
2022-12-11T00:46:16.352Z,69.05
2022-12-11T00:48:43.221Z,72.88
2022-12-11T00:51:10.924Z,73.20
2022-12-11T00:53:38.861Z,71.10
2022-12-11T00:56:20.835Z,72.80
2022-12-11T00:58:48.342Z,84.78
2022-12-11T01:01:21.629Z,75.50
2022-12-11T01:03:49.101Z,78.82
2022-12-11T01:06:17.954Z,80.70
2022-12-11T01:08:45.352Z,80.63
2022-12-11T01:11:14.763Z,85.72
2022-12-11T01:13:42.471Z,84.18
2022-12-11T01:16:15.134Z,95.53
2022-12-11T01:18:42.673Z,74.72
2022-12-11T01:21:11.768Z,92.93
2022-12-11T01:23:39.175Z,101.20
2022-12-11T01:26:12.175Z,76.93
2022-12-11T01:28:39.610Z,73.65
2022-12-11T01:31:10.912Z,86.07
2022-12-11T01:33:38.314Z,89.10
2022-12-11T01:36:19.511Z,89.03
2022-12-11T01:38:47.594Z,75.43
2022-12-11T01:41:14.871Z,83.57
2022-12-11T01:44:04.657Z,74.60
2022-12-11T01:46:33.940Z,75.32
2022-12-11T01:49:04.562Z,71.60
2022-12-11T01:51:35.860Z,71.38
2022-12-11T01:54:07.983Z,67.47
2022-12-11T01:56:36.259Z,88.88
2022-12-11T01:59:07.413Z,71.63
2022-12-11T02:01:42.359Z,78.07
2022-12-11T02:04:11.086Z,87.35
2022-12-11T02:06:46.997Z,70.68
2022-12-11T02:09:21.467Z,82.07
2022-12-11T02:12:00.084Z,75.18
2022-12-11T02:14:53.712Z,84.25
2022-12-11T02:17:29.805Z,87.53
2022-12-11T02:20:22.265Z,86.90
2022-12-11T02:23:06.189Z,87.15
2022-12-11T02:25:47.038Z,93.13
2022-12-11T02:28:24.053Z,87.70
2022-12-11T02:30:55.468Z,76.93
2022-12-11T02:33:29.884Z,71.05
2022-12-11T02:35:57.411Z,93.25
2022-12-11T02:38:32.803Z,78.53
2022-12-11T02:41:01.321Z,75.18
2022-12-11T02:43:32.584Z,90.00
2022-12-11T02:46:00.826Z,76.53
2022-12-11T02:48:27.608Z,72.97
2022-12-11T02:50:59.648Z,94.43
2022-12-11T02:53:31.027Z,96.13
2022-12-11T02:56:09.000Z,89.35
2022-12-11T02:58:41.833Z,94.45
2022-12-11T03:01:08.720Z,80.43
2022-12-11T03:03:35.510Z,87.43
2022-12-11T03:06:02.585Z,69.03
2022-12-11T03:08:29.710Z,114.68
2022-12-11T03:10:56.555Z,95.88
2022-12-11T03:13:23.500Z,88.05
2022-12-11T03:16:08.436Z,107.85
2022-12-11T03:19:36.549Z,85.57
2022-12-11T03:22:10.851Z,98.45
2022-12-11T03:24:46.253Z,96.15
2022-12-11T03:27:38.814Z,104.55
2022-12-11T03:30:09.236Z,86.38
2022-12-11T03:32:49.269Z,78.55
2022-12-11T03:35:45.343Z,100.80
2022-12-11T03:38:21.249Z,106.72
2022-12-11T03:40:54.243Z,118.80
2022-12-11T03:43:22.955Z,110.07
2022-12-11T03:45:52.140Z,133.60
2022-12-11T03:48:21.086Z,119.82
2022-12-11T03:50:49.735Z,111.30
2022-12-11T03:53:18.595Z,81.82
2022-12-11T03:55:47.399Z,128.07
2022-12-11T03:58:14.199Z,96.38
2022-12-11T04:00:43.807Z,130.32
2022-12-11T04:03:14.156Z,109.72
2022-12-11T04:05:46.742Z,108.82
2022-12-11T04:08:14.642Z,87.97
2022-12-11T04:10:41.581Z,79.90
2022-12-11T04:13:09.356Z,127.10
2022-12-11T04:15:37.141Z,121.20
2022-12-11T04:18:22.780Z,109.85
2022-12-11T04:21:08.313Z,92.05
2022-12-11T04:23:53.627Z,101.13
2022-12-11T04:26:20.950Z,69.95
2022-12-11T04:28:48.641Z,88.72
2022-12-11T04:31:18.007Z,85.25
2022-12-11T04:33:44.943Z,86.68
2022-12-11T04:36:12.836Z,70.65
2022-12-11T04:38:39.628Z,65.38
2022-12-11T04:41:10.563Z,84.32
2022-12-11T04:43:37.874Z,85.80
2022-12-11T04:46:06.133Z,116.18
2022-12-11T04:48:33.382Z,78.25
2022-12-11T04:51:00.220Z,80.95
2022-12-11T04:53:27.381Z,71.10
2022-12-11T04:55:54.477Z,87.95
2022-12-11T04:58:21.944Z,73.25
2022-12-11T05:00:48.752Z,88.78
2022-12-11T05:03:15.582Z,75.25
2022-12-11T05:05:48.588Z,67.57
2022-12-11T05:08:15.367Z,78.95
2022-12-11T05:10:47.101Z,76.40
2022-12-11T05:13:16.594Z,68.38
2022-12-11T05:15:43.359Z,82.15
2022-12-11T05:18:10.108Z,80.80
2022-12-11T05:20:36.815Z,80.05
2022-12-11T05:23:03.803Z,66.55
2022-12-11T05:25:30.558Z,85.55
2022-12-11T05:27:57.421Z,74.57
2022-12-11T05:30:24.243Z,82.38
2022-12-11T05:32:50.969Z,62.17
2022-12-11T05:35:17.777Z,66.35
2022-12-11T05:37:44.918Z,62.50
2022-12-11T05:40:33.011Z,57.03
2022-12-11T05:43:00.122Z,57.97
2022-12-11T05:45:26.821Z,62.92
2022-12-11T05:47:53.550Z,50.17
2022-12-11T05:50:20.319Z,63.00
2022-12-11T05:52:47.040Z,67.65
2022-12-11T05:55:14.012Z,57.78
2022-12-11T05:57:40.764Z,59.88
2022-12-11T06:00:08.992Z,58.50
2022-12-11T06:02:36.262Z,62.13
2022-12-11T06:05:03.520Z,56.45
2022-12-11T06:07:30.394Z,59.17
2022-12-11T06:09:57.168Z,57.10
2022-12-11T06:12:23.927Z,55.72
2022-12-11T06:14:50.691Z,47.60
2022-12-11T06:17:17.418Z,51.83
2022-12-11T06:19:44.141Z,56.95
2022-12-11T06:22:10.863Z,49.45
2022-12-11T06:24:37.584Z,62.05
2022-12-11T06:27:04.371Z,54.60
2022-12-11T06:29:31.247Z,58.25
2022-12-11T06:31:57.989Z,54.83
2022-12-11T06:34:24.863Z,59.20
2022-12-11T06:36:51.622Z,52.50
2022-12-11T06:39:18.334Z,54.60
2022-12-11T06:41:45.068Z,53.78
2022-12-11T06:44:11.798Z,50.15
2022-12-11T06:46:38.525Z,54.45
2022-12-11T06:49:05.252Z,47.38
2022-12-11T06:51:32.829Z,52.10
2022-12-11T06:53:59.857Z,59.38
2022-12-11T06:56:26.623Z,58.85
2022-12-11T06:58:53.974Z,64.90
2022-12-11T07:01:28.869Z,62.13
2022-12-11T07:03:57.568Z,68.70
2022-12-11T07:06:26.612Z,68.63
2022-12-11T07:08:58.239Z,69.05
2022-12-11T07:11:25.050Z,56.13
2022-12-11T07:13:51.806Z,61.08
2022-12-11T07:16:19.586Z,56.78
2022-12-11T07:18:51.028Z,54.58
2022-12-11T07:21:18.816Z,57.88
2022-12-11T07:23:46.718Z,56.63
2022-12-11T07:26:19.364Z,56.25
2022-12-11T07:28:47.444Z,55.55
2022-12-11T07:31:17.081Z,66.80
2022-12-11T07:33:44.222Z,55.95
2022-12-11T07:36:13.207Z,60.78
2022-12-11T07:38:40.300Z,62.80
2022-12-11T07:41:12.492Z,66.25
2022-12-11T07:43:39.702Z,62.30
2022-12-11T07:46:15.096Z,61.63
2022-12-11T07:48:44.422Z,56.72
2022-12-11T07:51:15.152Z,57.83
2022-12-11T07:53:47.120Z,68.45
2022-12-11T07:58:40.827Z,57.97
2022-12-11T08:01:36.615Z,73.93
2022-12-11T08:04:05.522Z,58.72
2022-12-11T08:06:36.187Z,66.63
2022-12-11T08:09:05.682Z,72.43
2022-12-11T08:11:32.914Z,57.38
2022-12-11T08:14:00.147Z,62.40
2022-12-11T08:16:27.048Z,52.08
2022-12-11T08:18:53.828Z,55.25
2022-12-11T08:21:23.477Z,58.67
2022-12-11T08:23:51.143Z,68.00
2022-12-11T08:26:21.835Z,65.95
2022-12-11T08:28:48.606Z,56.40
2022-12-11T08:31:16.361Z,64.43
2022-12-11T08:33:44.378Z,52.83
2022-12-11T08:36:14.655Z,47.63
2022-12-11T08:38:43.180Z,45.10
2022-12-11T08:41:09.976Z,46.75
2022-12-11T08:43:37.218Z,47.08
2022-12-11T08:46:04.070Z,44.80
2022-12-11T08:48:31.077Z,42.50
2022-12-11T08:51:02.633Z,41.88
2022-12-11T08:53:30.549Z,46.08
2022-12-11T08:56:08.383Z,40.75
2022-12-11T08:58:35.905Z,42.65
2022-12-11T09:01:18.320Z,40.22
2022-12-11T09:03:45.331Z,36.83
2022-12-11T09:06:15.239Z,42.42
2022-12-11T09:08:48.561Z,46.95
2022-12-11T09:11:22.463Z,48.80
2022-12-11T09:13:49.951Z,41.58
2022-12-11T09:16:18.953Z,54.92
2022-12-11T09:18:47.764Z,51.33
2022-12-11T09:21:17.467Z,46.33
2022-12-11T09:23:44.384Z,46.58
2022-12-11T09:26:13.917Z,46.20
2022-12-11T09:28:45.759Z,54.72
2022-12-11T09:31:34.744Z,50.10
2022-12-11T09:34:07.315Z,48.60
2022-12-11T09:36:34.473Z,49.08
2022-12-11T09:39:06.447Z,45.30
2022-12-11T09:44:31.552Z,46.05
2022-12-11T09:46:58.781Z,45.25
2022-12-11T09:49:43.524Z,48.45
2022-12-11T09:52:18.609Z,45.15
2022-12-11T09:54:58.470Z,45.60
2022-12-11T09:57:47.026Z,47.85
2022-12-11T10:00:26.947Z,45.00
2022-12-11T10:03:22.858Z,42.90
2022-12-11T10:05:59.584Z,44.75
2022-12-11T10:08:29.430Z,41.63
2022-12-11T10:11:30.091Z,41.17
2022-12-11T10:14:11.688Z,46.03
2022-12-11T10:16:49.539Z,46.17
2022-12-11T10:19:23.000Z,45.15
2022-12-11T10:21:51.708Z,44.33
2022-12-11T10:25:09.471Z,44.58
2022-12-11T10:27:24.252Z,44.80
2022-12-11T10:30:14.305Z,46.53
2022-12-11T10:32:58.420Z,41.80
2022-12-11T10:35:37.276Z,44.58
2022-12-11T10:38:32.803Z,43.75
2022-12-11T10:41:05.796Z,45.40
2022-12-11T10:43:52.999Z,45.03
2022-12-11T10:46:23.930Z,46.90
2022-12-11T10:49:01.475Z,40.20
2022-12-11T10:51:31.372Z,42.53
2022-12-11T10:54:08.838Z,40.00
2022-12-11T10:56:38.067Z,42.75
2022-12-11T10:59:05.167Z,44.08
2022-12-11T11:01:32.971Z,43.28
2022-12-11T11:04:07.181Z,40.95
2022-12-11T11:06:34.360Z,41.72
2022-12-11T11:09:01.795Z,37.90
2022-12-11T11:11:35.175Z,41.08
2022-12-11T11:14:07.768Z,40.63
2022-12-11T11:16:39.013Z,44.17
2022-12-11T11:19:06.632Z,40.33
2022-12-11T11:21:35.954Z,44.20
2022-12-11T11:24:03.897Z,35.03
2022-12-11T11:27:04.410Z,35.47
2022-12-11T11:29:32.364Z,36.13
2022-12-11T11:32:23.328Z,39.28
2022-12-11T11:34:50.202Z,38.63
2022-12-11T11:37:34.388Z,41.00
2022-12-11T11:40:18.373Z,39.25
2022-12-11T11:43:03.105Z,38.10
2022-12-11T11:45:36.335Z,32.75
2022-12-11T11:48:28.688Z,38.20
2022-12-11T11:50:58.004Z,33.60
2022-12-11T11:53:37.381Z,32.25
2022-12-11T11:56:31.609Z,31.25
2022-12-11T11:59:05.976Z,32.17
2022-12-11T12:01:33.147Z,32.58
2022-12-11T12:04:02.811Z,33.05
2022-12-11T12:06:55.731Z,32.63
2022-12-11T12:09:28.426Z,33.50
2022-12-11T12:12:34.236Z,43.38
2022-12-11T12:15:19.484Z,35.05
2022-12-11T12:17:55.720Z,32.58
2022-12-11T12:20:28.744Z,39.63
2022-12-11T12:23:21.875Z,34.90
2022-12-11T12:26:00.387Z,32.55
2022-12-11T12:28:57.955Z,33.85
2022-12-11T12:31:24.883Z,33.55
2022-12-11T12:34:08.713Z,30.05
2022-12-11T12:37:03.412Z,29.73
2022-12-11T12:39:38.456Z,29.17
2022-12-11T12:42:20.455Z,29.58
2022-12-11T12:45:09.114Z,30.88
2022-12-11T12:47:36.814Z,26.33
2022-12-11T12:50:10.417Z,28.42
2022-12-11T12:52:39.860Z,25.60
2022-12-11T12:55:16.586Z,24.58
2022-12-11T12:57:56.170Z,25.25
2022-12-11T13:00:43.435Z,25.92
2022-12-11T13:03:18.450Z,27.38
2022-12-11T13:05:59.520Z,24.50
2022-12-11T13:08:30.712Z,23.85
2022-12-11T13:11:05.077Z,23.70
2022-12-11T13:13:40.385Z,22.00
2022-12-11T13:16:34.634Z,21.88
2022-12-11T13:19:02.255Z,22.05
2022-12-11T13:21:31.101Z,21.67
2022-12-11T13:24:20.783Z,22.70
2022-12-11T13:26:51.090Z,21.55
2022-12-11T13:29:36.732Z,22.95
2022-12-11T13:32:22.235Z,19.70
2022-12-11T13:34:57.391Z,19.73
2022-12-11T13:37:33.240Z,19.15
2022-12-11T13:40:03.826Z,19.20
2022-12-11T13:43:03.129Z,20.23
2022-12-11T13:45:33.082Z,20.20
2022-12-11T13:48:00.427Z,18.17
2022-12-11T13:50:33.436Z,21.85
2022-12-11T13:53:02.563Z,18.20
2022-12-11T13:55:32.857Z,17.38
2022-12-11T13:58:00.263Z,18.13
2022-12-11T14:00:30.449Z,18.23
2022-12-11T14:03:02.010Z,17.85
2022-12-11T14:05:29.545Z,17.27
2022-12-11T14:07:59.306Z,19.15
2022-12-11T14:10:29.696Z,17.63
2022-12-11T14:13:02.102Z,19.40
2022-12-11T14:15:31.886Z,19.58
2022-12-11T14:18:00.652Z,16.08
2022-12-11T14:20:30.650Z,19.55
2022-12-11T14:23:21.925Z,17.08
2022-12-11T14:26:16.626Z,18.20
2022-12-11T14:28:44.062Z,17.35
2022-12-11T14:31:15.876Z,18.90
2022-12-11T14:36:17.443Z,19.33
2022-12-11T14:38:52.568Z,19.88
2022-12-11T14:41:25.167Z,19.05
2022-12-11T14:43:57.514Z,20.85
2022-12-11T14:46:34.431Z,18.10
2022-12-11T14:49:17.716Z,19.00
2022-12-11T14:51:45.280Z,17.88
2022-12-11T14:54:33.533Z,19.30
2022-12-11T14:57:02.219Z,19.88
2022-12-11T14:59:32.557Z,19.63
2022-12-11T15:02:21.281Z,21.95
2022-12-11T15:05:18.478Z,21.98
2022-12-11T15:08:00.417Z,22.73
2022-12-11T15:10:27.356Z,21.05
2022-12-11T15:12:55.171Z,22.38
2022-12-11T15:15:22.441Z,22.10
2022-12-11T15:17:53.049Z,21.08
2022-12-11T15:20:27.133Z,21.52
2022-12-11T15:22:56.671Z,21.27
2022-12-11T15:25:27.008Z,20.13
2022-12-11T15:27:56.794Z,20.85
2022-12-11T15:30:27.160Z,23.45
2022-12-11T15:33:09.446Z,20.85
2022-12-11T15:35:37.699Z,21.65
2022-12-11T15:38:04.957Z,22.88
2022-12-11T15:40:32.224Z,21.27
2022-12-11T15:43:01.761Z,22.65
2022-12-11T15:45:29.085Z,25.67
2022-12-11T15:47:56.295Z,21.38
2022-12-11T15:50:26.977Z,23.02
2022-12-11T15:52:55.543Z,22.33
2022-12-11T15:55:25.708Z,22.02
2022-12-11T15:57:59.445Z,20.33
2022-12-11T16:00:28.281Z,22.90
2022-12-11T16:02:57.005Z,23.48
2022-12-11T16:05:24.744Z,20.63
2022-12-11T16:07:56.598Z,23.25
2022-12-11T16:10:23.875Z,22.73
2022-12-11T16:12:50.754Z,22.63
2022-12-11T16:15:23.633Z,24.08
2022-12-11T16:18:00.073Z,20.58
2022-12-11T16:20:27.165Z,20.02
2022-12-11T16:22:53.963Z,18.95
2022-12-11T16:25:20.904Z,20.08
2022-12-11T16:27:47.682Z,18.80
2022-12-11T16:30:14.723Z,20.38
2022-12-11T16:32:42.635Z,23.00
2022-12-11T16:35:09.910Z,22.15
2022-12-11T16:37:38.069Z,19.10
2022-12-11T16:40:06.818Z,18.75
2022-12-11T16:42:34.135Z,21.02
2022-12-11T16:45:08.536Z,16.40
2022-12-11T16:47:35.376Z,15.25
2022-12-11T16:50:02.295Z,15.98
2022-12-11T16:52:31.964Z,17.10
2022-12-11T16:54:58.806Z,17.88
2022-12-11T16:57:25.797Z,16.88
2022-12-11T16:59:52.759Z,15.45
2022-12-11T17:02:21.054Z,18.05
2022-12-11T17:04:53.651Z,15.85
2022-12-11T17:07:21.051Z,13.82
2022-12-11T17:09:48.220Z,15.70
2022-12-11T17:12:15.394Z,14.80
2022-12-11T17:14:42.702Z,16.85
2022-12-11T17:17:10.239Z,15.40
2022-12-11T17:19:37.328Z,13.60
2022-12-11T17:22:04.606Z,14.63
2022-12-11T17:24:31.597Z,14.80
2022-12-11T17:26:59.739Z,13.90
2022-12-11T17:29:26.599Z,12.02
2022-12-11T17:31:53.507Z,12.07
2022-12-11T17:34:20.444Z,13.40
2022-12-11T17:36:47.483Z,12.70
2022-12-11T17:39:14.319Z,14.32
2022-12-11T17:41:41.344Z,14.80
2022-12-11T17:44:08.334Z,12.20
2022-12-11T17:46:35.336Z,13.88
2022-12-11T17:49:04.531Z,13.43
2022-12-11T17:51:31.688Z,12.30
2022-12-11T17:53:58.754Z,13.90
2022-12-11T17:56:27.223Z,14.15
2022-12-11T17:58:54.619Z,12.98
2022-12-11T18:01:22.245Z,14.40
2022-12-11T18:03:49.843Z,12.18
2022-12-11T18:06:17.556Z,11.68
2022-12-11T18:08:46.564Z,11.68
2022-12-11T18:11:16.786Z,12.70
2022-12-11T18:13:45.879Z,14.43
2022-12-11T18:16:19.733Z,11.13
2022-12-11T18:18:49.143Z,10.20
2022-12-11T18:21:22.633Z,10.57
2022-12-11T18:23:50.621Z,10.88
2022-12-11T18:26:19.380Z,7.88
2022-12-11T18:28:48.607Z,9.50
2022-12-11T18:31:25.812Z,8.90
2022-12-11T18:33:53.437Z,11.43
2022-12-11T18:36:21.520Z,12.68
2022-12-11T18:38:49.561Z,10.23
2022-12-11T18:41:18.739Z,12.30
2022-12-11T18:43:46.415Z,11.68
2022-12-11T18:46:16.307Z,10.02
2022-12-11T18:48:44.692Z,8.18
2022-12-11T18:51:15.124Z,9.98
2022-12-11T18:53:42.559Z,10.20
2022-12-11T18:56:18.093Z,7.63
2022-12-11T18:58:46.801Z,10.20
2022-12-11T19:01:24.180Z,10.05
2022-12-11T19:04:00.640Z,9.38
2022-12-11T19:06:32.292Z,8.55
2022-12-11T19:09:00.695Z,8.25
2022-12-11T19:11:30.615Z,10.27
2022-12-11T19:13:58.610Z,7.50
2022-12-11T19:16:35.521Z,8.43
2022-12-11T19:19:07.295Z,9.35
2022-12-11T19:21:36.765Z,8.82
2022-12-11T19:24:06.520Z,7.68
2022-12-11T19:26:34.618Z,6.80
2022-12-11T19:29:02.293Z,6.20
2022-12-11T19:31:31.561Z,6.93
2022-12-11T19:33:59.558Z,8.55
2022-12-11T19:36:29.023Z,10.48
2022-12-11T19:39:01.486Z,13.13
2022-12-11T19:41:31.070Z,11.50
2022-12-11T19:44:00.566Z,11.07
2022-12-11T19:46:29.048Z,8.88
2022-12-11T19:48:58.235Z,9.27
2022-12-11T19:51:28.882Z,9.35
2022-12-11T19:53:57.297Z,9.20
2022-12-11T19:56:26.024Z,10.77
2022-12-11T19:58:52.879Z,12.30
2022-12-11T20:01:28.495Z,11.57
2022-12-11T20:03:58.264Z,10.32
2022-12-11T20:06:29.483Z,13.27
2022-12-11T20:08:56.507Z,12.80
2022-12-11T20:11:23.359Z,14.95
2022-12-11T20:13:51.176Z,14.73
2022-12-11T20:16:28.856Z,13.45
2022-12-11T20:19:06.548Z,16.40
2022-12-11T20:21:33.396Z,15.77
2022-12-11T20:24:00.138Z,14.15
2022-12-11T20:26:27.465Z,16.45
2022-12-11T20:28:54.359Z,17.95
2022-12-11T20:31:24.894Z,17.30
2022-12-11T20:33:53.377Z,20.40
2022-12-11T20:36:21.976Z,18.83
2022-12-11T20:38:49.150Z,20.38
2022-12-11T20:41:19.827Z,21.60
2022-12-11T20:43:48.950Z,21.70
2022-12-11T20:46:17.394Z,22.65
2022-12-11T20:48:44.866Z,25.85
2022-12-11T20:51:13.353Z,25.50
2022-12-11T20:53:40.644Z,24.77
2022-12-11T20:56:17.718Z,25.33
2022-12-11T20:58:45.541Z,26.70
2022-12-11T21:01:16.857Z,29.60
2022-12-11T21:03:44.155Z,31.58
2022-12-11T21:06:31.134Z,33.33
2022-12-11T21:09:03.267Z,33.03
2022-12-11T21:11:30.284Z,34.75
2022-12-11T21:13:57.212Z,37.00
2022-12-11T21:16:24.617Z,32.97
2022-12-11T21:18:52.028Z,34.72
2022-12-11T21:21:18.860Z,37.50
2022-12-11T21:23:45.679Z,34.22
2022-12-11T21:26:12.972Z,35.00
2022-12-11T21:28:39.947Z,45.20
2022-12-11T21:31:09.335Z,45.42
2022-12-11T21:33:36.380Z,41.72
2022-12-11T21:36:05.856Z,47.42
2022-12-11T21:38:32.778Z,45.58
2022-12-11T21:41:10.630Z,49.63
2022-12-11T21:43:42.787Z,59.90
2022-12-11T21:46:17.289Z,53.20
2022-12-11T21:48:44.380Z,64.47
2022-12-11T21:51:17.727Z,59.63
2022-12-11T21:53:45.219Z,66.15
2022-12-11T21:56:15.596Z,70.32
2022-12-11T21:58:43.375Z,72.93
2022-12-11T22:01:23.274Z,72.05
2022-12-11T22:03:51.556Z,65.28
2022-12-11T22:06:19.339Z,66.85
2022-12-11T22:08:49.322Z,71.50
2022-12-11T22:11:21.834Z,72.07
2022-12-11T22:13:48.627Z,63.63
2022-12-11T22:16:15.503Z,65.15
2022-12-11T22:18:42.371Z,75.03
2022-12-11T22:21:09.423Z,75.68
2022-12-11T22:23:39.196Z,98.78
2022-12-11T22:26:14.741Z,91.28
2022-12-11T22:28:41.451Z,99.50
2022-12-11T22:31:16.832Z,101.65
2022-12-11T22:33:44.833Z,89.68
2022-12-11T22:36:11.974Z,78.55
2022-12-11T22:38:39.470Z,80.45
2022-12-11T22:41:11.302Z,80.03
2022-12-11T22:43:38.020Z,102.68
2022-12-11T22:46:04.838Z,101.85
2022-12-11T22:48:31.608Z,91.07
2022-12-11T22:50:58.606Z,88.03
2022-12-11T22:53:25.366Z,91.32
2022-12-11T22:55:52.147Z,89.20
2022-12-11T22:58:21.905Z,94.32
2022-12-11T23:00:49.158Z,88.90
2022-12-11T23:03:16.496Z,102.28
2022-12-11T23:05:43.470Z,83.65
2022-12-11T23:08:10.369Z,89.15
2022-12-11T23:10:40.600Z,61.85
2022-12-11T23:13:07.790Z,67.82
2022-12-11T23:15:35.594Z,73.13
2022-12-11T23:18:02.443Z,63.17
2022-12-11T23:20:29.200Z,78.43
2022-12-11T23:22:55.910Z,52.05
2022-12-11T23:25:22.754Z,54.75
2022-12-11T23:27:49.783Z,68.55
2022-12-11T23:30:16.483Z,51.58
2022-12-11T23:32:43.267Z,60.03
2022-12-11T23:35:10.412Z,50.28
2022-12-11T23:37:37.444Z,58.47
2022-12-11T23:40:05.796Z,56.78
2022-12-11T23:42:33.743Z,66.40
2022-12-11T23:45:00.483Z,60.72
2022-12-11T23:47:27.231Z,67.63
2022-12-11T23:49:54.020Z,80.45
2022-12-11T23:52:22.620Z,49.70
2022-12-11T23:54:49.384Z,64.70
2022-12-11T23:57:16.093Z,56.97
2022-12-11T23:59:42.824Z,42.88
